sensor_id;sensor_type;location;lat;lon;timestamp;pressure;altitude;pressure_sealevel;temperature
70123;BMP280;57489;37.404;24.920;2023-08-20T00:03:58;99707.97;;;29.51
70123;BMP280;57489;37.404;24.920;2023-08-20T00:08:58;99699.06;;;29.50
70123;BMP280;57489;37.404;24.920;2023-08-20T00:13:59;99698.22;;;29.60
70123;BMP280;57489;37.404;24.920;2023-08-20T00:18:59;99709.03;;;29.60
70123;BMP280;57489;37.404;24.920;2023-08-20T00:24:00;99707.41;;;29.66
70123;BMP280;57489;37.404;24.920;2023-08-20T00:29:01;99712.47;;;29.64
70123;BMP280;57489;37.404;24.920;2023-08-20T00:34:01;99707.47;;;29.59
70123;BMP280;57489;37.404;24.920;2023-08-20T00:39:02;99718.41;;;29.45
70123;BMP280;57489;37.404;24.920;2023-08-20T00:44:02;99711.47;;;29.44
70123;BMP280;57489;37.404;24.920;2023-08-20T00:49:03;99709.53;;;29.45
70123;BMP280;57489;37.404;24.920;2023-08-20T00:54:04;99699.53;;;29.38
70123;BMP280;57489;37.404;24.920;2023-08-20T00:59:05;99699.28;;;29.29
70123;BMP280;57489;37.404;24.920;2023-08-20T01:04:06;99690.28;;;29.39
70123;BMP280;57489;37.404;24.920;2023-08-20T01:14:23;99686.41;;;29.44
70123;BMP280;57489;37.404;24.920;2023-08-20T01:19:24;99691.44;;;29.38
70123;BMP280;57489;37.404;24.920;2023-08-20T01:30:06;99688.47;;;29.29
70123;BMP280;57489;37.404;24.920;2023-08-20T01:35:14;99688.53;;;29.22
70123;BMP280;57489;37.404;24.920;2023-08-20T01:40:14;99689.28;;;29.22
70123;BMP280;57489;37.404;24.920;2023-08-20T01:45:15;99690.06;;;29.23
70123;BMP280;57489;37.404;24.920;2023-08-20T01:50:15;99695.94;;;29.10
70123;BMP280;57489;37.404;24.920;2023-08-20T01:55:16;99685.38;;;29.23
70123;BMP280;57489;37.404;24.920;2023-08-20T02:00:16;99690.78;;;29.23
70123;BMP280;57489;37.404;24.920;2023-08-20T02:05:16;99687.75;;;29.21
70123;BMP280;57489;37.404;24.920;2023-08-20T02:10:17;99683.47;;;29.24
70123;BMP280;57489;37.404;24.920;2023-08-20T02:15:17;99686.13;;;29.31
70123;BMP280;57489;37.404;24.920;2023-08-20T02:20:18;99693.81;;;29.36
70123;BMP280;57489;37.404;24.920;2023-08-20T02:25:18;99682.19;;;29.39
70123;BMP280;57489;37.404;24.920;2023-08-20T02:30:19;99684.53;;;29.37
70123;BMP280;57489;37.404;24.920;2023-08-20T02:35:20;99677.53;;;29.43
70123;BMP280;57489;37.404;24.920;2023-08-20T02:40:20;99681.31;;;29.49
70123;BMP280;57489;37.404;24.920;2023-08-20T02:45:20;99694.09;;;29.45
70123;BMP280;57489;37.404;24.920;2023-08-20T02:50:21;99689.78;;;29.51
70123;BMP280;57489;37.404;24.920;2023-08-20T02:55:21;99692.13;;;29.49
70123;BMP280;57489;37.404;24.920;2023-08-20T03:00:22;99684.44;;;29.44
70123;BMP280;57489;37.404;24.920;2023-08-20T03:05:22;99686.00;;;29.41
70123;BMP280;57489;37.404;24.920;2023-08-20T03:10:23;99690.69;;;29.37
70123;BMP280;57489;37.404;24.920;2023-08-20T03:15:23;99689.13;;;29.44
70123;BMP280;57489;37.404;24.920;2023-08-20T03:20:24;99679.84;;;29.41
70123;BMP280;57489;37.404;24.920;2023-08-20T03:25:24;99692.28;;;29.35
70123;BMP280;57489;37.404;24.920;2023-08-20T03:30:25;99691.19;;;29.29
70123;BMP280;57489;37.404;24.920;2023-08-20T03:35:25;99686.56;;;29.26
70123;BMP280;57489;37.404;24.920;2023-08-20T03:40:27;99690.00;;;29.26
70123;BMP280;57489;37.404;24.920;2023-08-20T03:45:28;99691.22;;;29.22
70123;BMP280;57489;37.404;24.920;2023-08-20T03:50:29;99696.59;;;29.25
70123;BMP280;57489;37.404;24.920;2023-08-20T03:55:29;99700.09;;;29.19
70123;BMP280;57489;37.404;24.920;2023-08-20T04:00:29;99695.78;;;28.80
70123;BMP280;57489;37.404;24.920;2023-08-20T04:05:38;99703.50;;;28.78
70123;BMP280;57489;37.404;24.920;2023-08-20T04:10:43;99712.78;;;28.73
70123;BMP280;57489;37.404;24.920;2023-08-20T04:15:44;99715.78;;;28.86
70123;BMP280;57489;37.404;24.920;2023-08-20T04:20:44;99717.28;;;28.94
70123;BMP280;57489;37.404;24.920;2023-08-20T04:25:45;99705.69;;;28.97
70123;BMP280;57489;37.404;24.920;2023-08-20T04:30:46;99715.09;;;28.75
70123;BMP280;57489;37.404;24.920;2023-08-20T04:35:48;99717.94;;;29.13
70123;BMP280;57489;37.404;24.920;2023-08-20T04:40:49;99717.94;;;29.09
70123;BMP280;57489;37.404;24.920;2023-08-20T04:45:49;99731.16;;;28.96
70123;BMP280;57489;37.404;24.920;2023-08-20T04:50:49;99722.31;;;28.96
70123;BMP280;57489;37.404;24.920;2023-08-20T04:55:50;99723.38;;;29.05
70123;BMP280;57489;37.404;24.920;2023-08-20T05:00:50;99717.16;;;29.08
70123;BMP280;57489;37.404;24.920;2023-08-20T05:05:51;99719.94;;;29.01
70123;BMP280;57489;37.404;24.920;2023-08-20T05:10:51;99728.75;;;29.09
70123;BMP280;57489;37.404;24.920;2023-08-20T05:15:52;99736.88;;;29.05
70123;BMP280;57489;37.404;24.920;2023-08-20T05:20:52;99735.69;;;29.14
70123;BMP280;57489;37.404;24.920;2023-08-20T05:25:53;99739.56;;;29.09
70123;BMP280;57489;37.404;24.920;2023-08-20T05:30:56;99743.78;;;29.14
70123;BMP280;57489;37.404;24.920;2023-08-20T05:35:59;99744.13;;;29.23
70123;BMP280;57489;37.404;24.920;2023-08-20T05:40:59;99762.22;;;29.26
70123;BMP280;57489;37.404;24.920;2023-08-20T05:45:59;99764.09;;;29.36
70123;BMP280;57489;37.404;24.920;2023-08-20T05:51:00;99762.31;;;29.63
70123;BMP280;57489;37.404;24.920;2023-08-20T05:56:00;99763.78;;;29.71
70123;BMP280;57489;37.404;24.920;2023-08-20T06:01:01;99767.66;;;29.70
70123;BMP280;57489;37.404;24.920;2023-08-20T06:06:01;99760.56;;;29.84
70123;BMP280;57489;37.404;24.920;2023-08-20T06:11:02;99762.00;;;29.99
70123;BMP280;57489;37.404;24.920;2023-08-20T06:16:02;99765.31;;;30.10
70123;BMP280;57489;37.404;24.920;2023-08-20T06:21:03;99762.88;;;29.85
70123;BMP280;57489;37.404;24.920;2023-08-20T06:26:04;99765.25;;;29.80
70123;BMP280;57489;37.404;24.920;2023-08-20T06:31:04;99770.66;;;29.80
70123;BMP280;57489;37.404;24.920;2023-08-20T06:36:05;99766.09;;;29.73
70123;BMP280;57489;37.404;24.920;2023-08-20T06:41:05;99765.19;;;29.87
70123;BMP280;57489;37.404;24.920;2023-08-20T06:46:06;99765.38;;;30.03
70123;BMP280;57489;37.404;24.920;2023-08-20T06:51:15;99765.63;;;30.19
70123;BMP280;57489;37.404;24.920;2023-08-20T06:56:19;99764.69;;;30.33
70123;BMP280;57489;37.404;24.920;2023-08-20T07:01:19;99763.09;;;30.36
70123;BMP280;57489;37.404;24.920;2023-08-20T07:06:20;99771.66;;;30.61
70123;BMP280;57489;37.404;24.920;2023-08-20T07:11:21;99778.94;;;30.68
70123;BMP280;57489;37.404;24.920;2023-08-20T07:16:21;99777.34;;;30.70
70123;BMP280;57489;37.404;24.920;2023-08-20T07:21:22;99772.56;;;30.81
70123;BMP280;57489;37.404;24.920;2023-08-20T07:26:22;99771.00;;;30.53
70123;BMP280;57489;37.404;24.920;2023-08-20T07:31:27;99767.81;;;30.62
70123;BMP280;57489;37.404;24.920;2023-08-20T07:36:27;99758.19;;;30.84
70123;BMP280;57489;37.404;24.920;2023-08-20T07:41:28;99766.00;;;31.06
70123;BMP280;57489;37.404;24.920;2023-08-20T07:46:28;99763.19;;;31.13
70123;BMP280;57489;37.404;24.920;2023-08-20T07:51:29;99764.13;;;31.26
70123;BMP280;57489;37.404;24.920;2023-08-20T07:56:29;99765.22;;;31.32
70123;BMP280;57489;37.404;24.920;2023-08-20T08:01:30;99770.63;;;31.32
70123;BMP280;57489;37.404;24.920;2023-08-20T08:06:30;99778.25;;;31.14
70123;BMP280;57489;37.404;24.920;2023-08-20T08:11:31;99778.81;;;31.29
70123;BMP280;57489;37.404;24.920;2023-08-20T08:16:31;99774.31;;;31.42
70123;BMP280;57489;37.404;24.920;2023-08-20T08:21:31;99785.19;;;31.42
70123;BMP280;57489;37.404;24.920;2023-08-20T08:26:33;99785.38;;;31.55
70123;BMP280;57489;37.404;24.920;2023-08-20T08:31:34;99777.50;;;31.60
70123;BMP280;57489;37.404;24.920;2023-08-20T08:36:35;99784.53;;;31.58
70123;BMP280;57489;37.404;24.920;2023-08-20T08:41:38;99776.25;;;31.65
70123;BMP280;57489;37.404;24.920;2023-08-20T08:46:39;99762.69;;;31.65
70123;BMP280;57489;37.404;24.920;2023-08-20T08:51:42;99767.03;;;31.82
70123;BMP280;57489;37.404;24.920;2023-08-20T08:56:44;99771.44;;;31.72
70123;BMP280;57489;37.404;24.920;2023-08-20T09:01:45;99770.22;;;31.77
70123;BMP280;57489;37.404;24.920;2023-08-20T09:06:51;99782.63;;;31.78
70123;BMP280;57489;37.404;24.920;2023-08-20T09:11:51;99782.13;;;31.83
70123;BMP280;57489;37.404;24.920;2023-08-20T09:17:01;99784.16;;;31.79
70123;BMP280;57489;37.404;24.920;2023-08-20T09:22:02;99782.88;;;31.83
70123;BMP280;57489;37.404;24.920;2023-08-20T09:27:03;99788.66;;;31.86
70123;BMP280;57489;37.404;24.920;2023-08-20T09:32:04;99787.06;;;31.88
70123;BMP280;57489;37.404;24.920;2023-08-20T09:37:08;99795.38;;;31.77
70123;BMP280;57489;37.404;24.920;2023-08-20T09:42:10;99789.44;;;31.86
70123;BMP280;57489;37.404;24.920;2023-08-20T09:47:15;99785.66;;;31.80
70123;BMP280;57489;37.404;24.920;2023-08-20T09:52:21;99783.94;;;31.90
70123;BMP280;57489;37.404;24.920;2023-08-20T09:57:43;99783.41;;;31.98
70123;BMP280;57489;37.404;24.920;2023-08-20T10:02:43;99778.03;;;32.15
70123;BMP280;57489;37.404;24.920;2023-08-20T10:07:45;99785.25;;;32.41
70123;BMP280;57489;37.404;24.920;2023-08-20T10:12:46;99794.41;;;32.83
70123;BMP280;57489;37.404;24.920;2023-08-20T10:17:47;99781.38;;;32.74
70123;BMP280;57489;37.404;24.920;2023-08-20T10:22:50;99789.22;;;32.72
70123;BMP280;57489;37.404;24.920;2023-08-20T10:27:51;99786.56;;;32.85
70123;BMP280;57489;37.404;24.920;2023-08-20T10:32:52;99782.09;;;32.79
70123;BMP280;57489;37.404;24.920;2023-08-20T10:38:19;99779.88;;;32.73
70123;BMP280;57489;37.404;24.920;2023-08-20T10:43:33;99782.94;;;32.75
70123;BMP280;57489;37.404;24.920;2023-08-20T10:48:35;99782.34;;;32.68
70123;BMP280;57489;37.404;24.920;2023-08-20T10:53:36;99776.72;;;32.75
70123;BMP280;57489;37.404;24.920;2023-08-20T10:58:47;99775.69;;;32.69
70123;BMP280;57489;37.404;24.920;2023-08-20T11:03:50;99762.84;;;32.69
70123;BMP280;57489;37.404;24.920;2023-08-20T11:08:51;99762.53;;;32.84
70123;BMP280;57489;37.404;24.920;2023-08-20T11:13:52;99759.31;;;33.05
70123;BMP280;57489;37.404;24.920;2023-08-20T11:18:52;99755.22;;;32.64
70123;BMP280;57489;37.404;24.920;2023-08-20T11:23:53;99760.00;;;32.60
70123;BMP280;57489;37.404;24.920;2023-08-20T11:28:53;99756.59;;;32.72
70123;BMP280;57489;37.404;24.920;2023-08-20T11:33:56;99753.72;;;32.80
70123;BMP280;57489;37.404;24.920;2023-08-20T11:38:57;99755.38;;;32.41
70123;BMP280;57489;37.404;24.920;2023-08-20T11:43:58;99756.00;;;32.29
70123;BMP280;57489;37.404;24.920;2023-08-20T11:49:06;99755.84;;;32.36
70123;BMP280;57489;37.404;24.920;2023-08-20T11:54:09;99756.31;;;32.51
70123;BMP280;57489;37.404;24.920;2023-08-20T11:59:10;99759.63;;;32.58
70123;BMP280;57489;37.404;24.920;2023-08-20T12:04:11;99744.03;;;32.42
70123;BMP280;57489;37.404;24.920;2023-08-20T12:09:22;99748.41;;;32.56
70123;BMP280;57489;37.404;24.920;2023-08-20T12:14:23;99751.56;;;32.55
70123;BMP280;57489;37.404;24.920;2023-08-20T12:19:24;99733.47;;;32.64
70123;BMP280;57489;37.404;24.920;2023-08-20T12:24:25;99740.69;;;32.55
70123;BMP280;57489;37.404;24.920;2023-08-20T12:29:26;99735.84;;;32.62
70123;BMP280;57489;37.404;24.920;2023-08-20T12:34:26;99741.31;;;32.79
70123;BMP280;57489;37.404;24.920;2023-08-20T12:39:27;99731.28;;;32.92
70123;BMP280;57489;37.404;24.920;2023-08-20T12:44:28;99731.13;;;32.99
70123;BMP280;57489;37.404;24.920;2023-08-20T12:49:28;99727.78;;;33.08
70123;BMP280;57489;37.404;24.920;2023-08-20T12:54:29;99731.88;;;32.99
70123;BMP280;57489;37.404;24.920;2023-08-20T12:59:29;99734.41;;;32.90
70123;BMP280;57489;37.404;24.920;2023-08-20T13:04:30;99732.44;;;33.07
70123;BMP280;57489;37.404;24.920;2023-08-20T13:09:31;99728.06;;;32.97
70123;BMP280;57489;37.404;24.920;2023-08-20T13:14:32;99736.03;;;32.71
70123;BMP280;57489;37.404;24.920;2023-08-20T13:19:32;99730.06;;;32.44
70123;BMP280;57489;37.404;24.920;2023-08-20T13:24:33;99730.13;;;32.40
70123;BMP280;57489;37.404;24.920;2023-08-20T13:29:33;99732.69;;;32.31
70123;BMP280;57489;37.404;24.920;2023-08-20T13:34:34;99731.19;;;32.47
70123;BMP280;57489;37.404;24.920;2023-08-20T13:39:35;99727.59;;;32.50
70123;BMP280;57489;37.404;24.920;2023-08-20T13:44:35;99724.31;;;32.58
70123;BMP280;57489;37.404;24.920;2023-08-20T13:49:35;99724.63;;;32.44
70123;BMP280;57489;37.404;24.920;2023-08-20T13:54:36;99721.91;;;32.44
70123;BMP280;57489;37.404;24.920;2023-08-20T13:59:37;99721.75;;;32.51
70123;BMP280;57489;37.404;24.920;2023-08-20T14:04:37;99719.03;;;32.84
70123;BMP280;57489;37.404;24.920;2023-08-20T14:09:38;99716.13;;;33.07
70123;BMP280;57489;37.404;24.920;2023-08-20T14:14:38;99716.84;;;33.11
70123;BMP280;57489;37.404;24.920;2023-08-20T14:19:38;99711.28;;;32.98
70123;BMP280;57489;37.404;24.920;2023-08-20T14:24:39;99718.81;;;32.94
70123;BMP280;57489;37.404;24.920;2023-08-20T14:29:40;99717.50;;;32.83
70123;BMP280;57489;37.404;24.920;2023-08-20T14:34:41;99714.97;;;32.92
70123;BMP280;57489;37.404;24.920;2023-08-20T14:39:41;99720.72;;;32.94
70123;BMP280;57489;37.404;24.920;2023-08-20T14:44:42;99725.00;;;32.95
70123;BMP280;57489;37.404;24.920;2023-08-20T14:49:42;99721.75;;;33.00
70123;BMP280;57489;37.404;24.920;2023-08-20T14:54:43;99724.16;;;32.98
70123;BMP280;57489;37.404;24.920;2023-08-20T14:59:43;99724.63;;;32.93
70123;BMP280;57489;37.404;24.920;2023-08-20T15:04:44;99717.94;;;32.97
70123;BMP280;57489;37.404;24.920;2023-08-20T15:09:44;99719.66;;;32.75
70123;BMP280;57489;37.404;24.920;2023-08-20T15:14:45;99719.91;;;32.81
70123;BMP280;57489;37.404;24.920;2023-08-20T15:19:45;99725.78;;;32.63
70123;BMP280;57489;37.404;24.920;2023-08-20T15:24:46;99716.25;;;32.71
70123;BMP280;57489;37.404;24.920;2023-08-20T15:29:46;99721.94;;;32.60
70123;BMP280;57489;37.404;24.920;2023-08-20T15:34:47;99714.78;;;32.50
70123;BMP280;57489;37.404;24.920;2023-08-20T15:39:47;99713.78;;;32.44
70123;BMP280;57489;37.404;24.920;2023-08-20T15:44:48;99715.38;;;32.41
70123;BMP280;57489;37.404;24.920;2023-08-20T15:49:48;99703.75;;;32.41
70123;BMP280;57489;37.404;24.920;2023-08-20T15:54:48;99710.00;;;32.38
70123;BMP280;57489;37.404;24.920;2023-08-20T15:59:49;99701.69;;;32.29
70123;BMP280;57489;37.404;24.920;2023-08-20T16:04:49;99695.78;;;32.14
70123;BMP280;57489;37.404;24.920;2023-08-20T16:09:50;99700.59;;;32.06
70123;BMP280;57489;37.404;24.920;2023-08-20T16:14:50;99696.91;;;31.97
70123;BMP280;57489;37.404;24.920;2023-08-20T16:19:51;99694.44;;;31.86
70123;BMP280;57489;37.404;24.920;2023-08-20T16:24:52;99700.28;;;31.65
70123;BMP280;57489;37.404;24.920;2023-08-20T16:29:52;99701.25;;;31.55
70123;BMP280;57489;37.404;24.920;2023-08-20T16:34:52;99693.84;;;31.55
70123;BMP280;57489;37.404;24.920;2023-08-20T16:39:53;99685.94;;;31.44
70123;BMP280;57489;37.404;24.920;2023-08-20T16:44:53;99697.41;;;31.32
70123;BMP280;57489;37.404;24.920;2023-08-20T16:49:54;99690.72;;;31.37
70123;BMP280;57489;37.404;24.920;2023-08-20T16:54:54;99691.97;;;31.32
70123;BMP280;57489;37.404;24.920;2023-08-20T16:59:55;99680.31;;;31.35
70123;BMP280;57489;37.404;24.920;2023-08-20T17:04:55;99690.19;;;31.22
70123;BMP280;57489;37.404;24.920;2023-08-20T17:09:56;99689.25;;;31.09
70123;BMP280;57489;37.404;24.920;2023-08-20T17:14:57;99686.91;;;31.11
70123;BMP280;57489;37.404;24.920;2023-08-20T17:19:57;99688.78;;;31.37
70123;BMP280;57489;37.404;24.920;2023-08-20T17:24:58;99696.44;;;31.42
70123;BMP280;57489;37.404;24.920;2023-08-20T17:29:58;99696.44;;;31.42
70123;BMP280;57489;37.404;24.920;2023-08-20T17:34:59;99716.00;;;31.30
70123;BMP280;57489;37.404;24.920;2023-08-20T17:39:59;99709.75;;;31.33
70123;BMP280;57489;37.404;24.920;2023-08-20T17:45:00;99713.44;;;31.46
70123;BMP280;57489;37.404;24.920;2023-08-20T17:50:00;99718.47;;;31.44
70123;BMP280;57489;37.404;24.920;2023-08-20T17:55:01;99718.50;;;31.64
70123;BMP280;57489;37.404;24.920;2023-08-20T18:00:01;99723.97;;;31.41
70123;BMP280;57489;37.404;24.920;2023-08-20T18:05:03;99718.56;;;31.17
70123;BMP280;57489;37.404;24.920;2023-08-20T18:10:03;99730.59;;;31.40
70123;BMP280;57489;37.404;24.920;2023-08-20T18:15:04;99732.53;;;31.39
70123;BMP280;57489;37.404;24.920;2023-08-20T18:20:05;99726.63;;;31.44
70123;BMP280;57489;37.404;24.920;2023-08-20T18:25:07;99728.50;;;31.47
70123;BMP280;57489;37.404;24.920;2023-08-20T18:30:08;99733.94;;;31.47
70123;BMP280;57489;37.404;24.920;2023-08-20T18:35:08;99731.22;;;31.47
70123;BMP280;57489;37.404;24.920;2023-08-20T18:40:09;99738.44;;;31.34
70123;BMP280;57489;37.404;24.920;2023-08-20T18:45:10;99733.81;;;31.31
70123;BMP280;57489;37.404;24.920;2023-08-20T18:50:10;99726.00;;;31.37
70123;BMP280;57489;37.404;24.920;2023-08-20T18:55:11;99731.34;;;31.40
70123;BMP280;57489;37.404;24.920;2023-08-20T19:00:12;99740.81;;;31.32
70123;BMP280;57489;37.404;24.920;2023-08-20T19:05:12;99742.59;;;31.39
70123;BMP280;57489;37.404;24.920;2023-08-20T19:10:16;99742.69;;;31.35
70123;BMP280;57489;37.404;24.920;2023-08-20T19:15:17;99735.47;;;31.25
70123;BMP280;57489;37.404;24.920;2023-08-20T19:20:18;99739.59;;;31.33
70123;BMP280;57489;37.404;24.920;2023-08-20T19:25:18;99738.44;;;31.34
70123;BMP280;57489;37.404;24.920;2023-08-20T19:30:19;99744.19;;;31.36
70123;BMP280;57489;37.404;24.920;2023-08-20T19:35:19;99747.63;;;31.40
70123;BMP280;57489;37.404;24.920;2023-08-20T19:40:20;99743.78;;;31.38
70123;BMP280;57489;37.404;24.920;2023-08-20T19:45:20;99739.06;;;31.42
70123;BMP280;57489;37.404;24.920;2023-08-20T19:50:22;99729.75;;;31.43
70123;BMP280;57489;37.404;24.920;2023-08-20T19:55:23;99735.00;;;31.30
70123;BMP280;57489;37.404;24.920;2023-08-20T20:00:23;99732.41;;;31.23
70123;BMP280;57489;37.404;24.920;2023-08-20T20:05:24;99732.41;;;31.23
70123;BMP280;57489;37.404;24.920;2023-08-20T20:10:25;99733.94;;;31.24
70123;BMP280;57489;37.404;24.920;2023-08-20T20:15:25;99743.53;;;31.05
70123;BMP280;57489;37.404;24.920;2023-08-20T20:20:26;99745.81;;;31.10
70123;BMP280;57489;37.404;24.920;2023-08-20T20:25:28;99751.84;;;30.95
70123;BMP280;57489;37.404;24.920;2023-08-20T20:30:29;99750.88;;;30.81
70123;BMP280;57489;37.404;24.920;2023-08-20T20:35:30;99757.50;;;31.04
70123;BMP280;57489;37.404;24.920;2023-08-20T20:40:31;99752.63;;;30.68
70123;BMP280;57489;37.404;24.920;2023-08-20T20:45:31;99749.09;;;30.71
70123;BMP280;57489;37.404;24.920;2023-08-20T20:50:31;99762.00;;;30.60
70123;BMP280;57489;37.404;24.920;2023-08-20T20:55:32;99753.31;;;30.72
70123;BMP280;57489;37.404;24.920;2023-08-20T21:00:32;99745.84;;;30.80
70123;BMP280;57489;37.404;24.920;2023-08-20T21:05:33;99753.84;;;30.90
70123;BMP280;57489;37.404;24.920;2023-08-20T21:10:33;99749.94;;;30.91
70123;BMP280;57489;37.404;24.920;2023-08-20T21:15:34;99753.47;;;30.88
70123;BMP280;57489;37.404;24.920;2023-08-20T21:20:34;99755.44;;;30.88
70123;BMP280;57489;37.404;24.920;2023-08-20T21:25:35;99755.94;;;31.03
70123;BMP280;57489;37.404;24.920;2023-08-20T21:30:35;99747.72;;;30.86
70123;BMP280;57489;37.404;24.920;2023-08-20T21:35:36;99745.94;;;31.00
70123;BMP280;57489;37.404;24.920;2023-08-20T21:40:36;99745.94;;;31.00
70123;BMP280;57489;37.404;24.920;2023-08-20T21:45:37;99745.94;;;31.00
70123;BMP280;57489;37.404;24.920;2023-08-20T21:50:37;99745.94;;;31.00
70123;BMP280;57489;37.404;24.920;2023-08-20T21:55:38;99745.94;;;31.00
70123;BMP280;57489;37.404;24.920;2023-08-20T22:00:40;99745.94;;;31.00
70123;BMP280;57489;37.404;24.920;2023-08-20T22:05:41;99741.47;;;30.89
70123;BMP280;57489;37.404;24.920;2023-08-20T22:10:41;99743.13;;;30.83
70123;BMP280;57489;37.404;24.920;2023-08-20T22:15:42;99733.97;;;30.74
70123;BMP280;57489;37.404;24.920;2023-08-20T22:20:42;99728.66;;;30.63
70123;BMP280;57489;37.404;24.920;2023-08-20T22:25:43;99721.75;;;30.62
70123;BMP280;57489;37.404;24.920;2023-08-20T22:30:43;99720.97;;;30.61
70123;BMP280;57489;37.404;24.920;2023-08-20T22:35:53;99711.72;;;30.59
70123;BMP280;57489;37.404;24.920;2023-08-20T22:40:53;99716.41;;;30.55
70123;BMP280;57489;37.404;24.920;2023-08-20T22:45:54;99710.28;;;30.51
70123;BMP280;57489;37.404;24.920;2023-08-20T22:50:54;99704.97;;;30.44
70123;BMP280;57489;37.404;24.920;2023-08-20T22:55:55;99701.88;;;30.45
70123;BMP280;57489;37.404;24.920;2023-08-20T23:00:55;99699.22;;;30.38
70123;BMP280;57489;37.404;24.920;2023-08-20T23:05:55;99701.91;;;30.42
70123;BMP280;57489;37.404;24.920;2023-08-20T23:10:56;99702.25;;;30.44
70123;BMP280;57489;37.404;24.920;2023-08-20T23:15:56;99703.47;;;30.39
70123;BMP280;57489;37.404;24.920;2023-08-20T23:21:01;99700.47;;;30.34
70123;BMP280;57489;37.404;24.920;2023-08-20T23:26:02;99698.13;;;30.32
70123;BMP280;57489;37.404;24.920;2023-08-20T23:31:05;99699.72;;;30.29
70123;BMP280;57489;37.404;24.920;2023-08-20T23:36:06;99686.53;;;30.31
70123;BMP280;57489;37.404;24.920;2023-08-20T23:41:06;99684.31;;;30.26
70123;BMP280;57489;37.404;24.920;2023-08-20T23:46:07;99676.47;;;30.32
70123;BMP280;57489;37.404;24.920;2023-08-20T23:51:07;99675.00;;;30.27
70123;BMP280;57489;37.404;24.920;2023-08-20T23:56:08;99675.09;;;30.20
